Beddau, United Kingdom
Current Conditions -  °F | °C
As of 5:20 PM on Saturday 25 Oct 2014 (Local Time) from EGFF Reporting Station
Overcast Overcast  
Wind Chill: 55°   Ceiling: 2100
Heat Index: 55°   Visibility: 6mi
Dew Point: 52°   Wind: 15mph
Humidity: 88%   Direction: 250°WSW
Pressure: 30.06"   Gusts: NA
Location:  51.55°N, 3.36°W
Report Text: EGFF 251620Z AUTO 25013KT 9999 SCT009 BKN021 OVC041 13/11 Q1018 RERA
Loading
Personal Weather Stations






























Interactive Weather Map New forecast layout! Learn more

10-Day Weather Forecast

Advertisements
Track Severe Weather on mobile